createdAt,value
2023-05-16T00:00:05.628Z,9.77
2023-05-16T00:00:36.293Z,9.77
2023-05-16T00:01:07.712Z,9.77
2023-05-16T00:01:39.252Z,9.77
2023-05-16T00:01:56.096Z,9.77
2023-05-16T00:02:27.810Z,9.77
2023-05-16T00:02:59.683Z,9.77
2023-05-16T00:03:31.312Z,9.77
2023-05-16T00:04:03.231Z,9.77
2023-05-16T00:04:36.468Z,9.77
2023-05-16T00:05:08.039Z,9.77
2023-05-16T00:05:39.316Z,9.77
2023-05-16T00:06:11.332Z,9.77
2023-05-16T00:06:37.204Z,9.77
2023-05-16T00:06:59.240Z,9.77
2023-05-16T00:07:17.979Z,9.77
2023-05-16T00:07:37.297Z,9.77
2023-05-16T00:08:03.177Z,9.77
2023-05-16T00:08:36.691Z,9.77
2023-05-16T00:09:07.244Z,9.77
2023-05-16T00:09:39.111Z,9.77
2023-05-16T00:09:56.034Z,9.77
2023-05-16T00:10:27.928Z,9.77
2023-05-16T00:10:59.186Z,9.77
2023-05-16T00:11:16.073Z,9.77
2023-05-16T00:11:37.085Z,9.77
2023-05-16T00:12:03.141Z,9.77
2023-05-16T00:12:36.237Z,9.77
2023-05-16T00:13:07.408Z,9.77
2023-05-16T00:13:39.398Z,9.72
2023-05-16T00:14:11.296Z,9.72
2023-05-16T00:14:37.113Z,9.72
2023-05-16T00:14:59.228Z,9.72
2023-05-16T00:15:16.930Z,9.72
2023-05-16T00:15:37.461Z,9.72
2023-05-16T00:16:03.109Z,9.72
2023-05-16T00:16:37.242Z,9.72
2023-05-16T00:17:07.599Z,9.72
2023-05-16T00:17:39.797Z,9.72
2023-05-16T00:17:55.977Z,9.72
2023-05-16T00:18:27.313Z,9.72
2023-05-16T00:18:59.344Z,9.72
2023-05-16T00:19:16.199Z,9.72
2023-05-16T00:19:37.138Z,9.72
2023-05-16T00:20:04.899Z,9.61
2023-05-16T00:20:36.351Z,9.61
2023-05-16T00:21:07.416Z,9.61
2023-05-16T00:21:39.214Z,9.61
2023-05-16T00:21:56.095Z,9.61
2023-05-16T00:22:27.237Z,9.50
2023-05-16T00:22:59.252Z,9.50
2023-05-16T00:23:16.195Z,9.50
2023-05-16T00:23:37.247Z,9.50
2023-05-16T00:24:03.249Z,9.50
2023-05-16T00:24:37.002Z,9.50
2023-05-16T00:25:08.204Z,9.50
2023-05-16T00:25:39.235Z,9.50
2023-05-16T00:25:56.451Z,9.50
2023-05-16T00:26:27.382Z,9.50
2023-05-16T00:26:59.813Z,9.38
2023-05-16T00:27:31.167Z,9.38
2023-05-16T00:28:03.518Z,9.38
2023-05-16T00:28:36.325Z,9.38
2023-05-16T00:29:07.242Z,9.38
2023-05-16T00:29:39.689Z,9.38
2023-05-16T00:29:56.135Z,9.38
2023-05-16T00:30:28.489Z,9.38
2023-05-16T00:30:59.334Z,9.27
2023-05-16T00:31:16.081Z,9.27
2023-05-16T00:31:37.235Z,9.27
2023-05-16T00:32:03.245Z,9.27
2023-05-16T00:32:36.223Z,9.27
2023-05-16T00:33:07.382Z,9.27
2023-05-16T00:33:39.624Z,9.27
2023-05-16T00:33:56.008Z,9.27
2023-05-16T00:34:27.384Z,9.27
2023-05-16T00:34:59.574Z,9.22
2023-05-16T00:35:31.685Z,9.22
2023-05-16T00:36:03.329Z,9.22
2023-05-16T00:36:37.200Z,9.22
2023-05-16T00:37:07.383Z,9.22
2023-05-16T00:37:39.326Z,9.22
2023-05-16T00:37:56.413Z,9.22
2023-05-16T00:38:27.525Z,9.22
2023-05-16T00:38:59.334Z,9.22
2023-05-16T00:39:16.014Z,9.22
2023-05-16T00:39:37.296Z,9.22
2023-05-16T00:40:05.165Z,9.22
2023-05-16T00:40:36.388Z,9.22
2023-05-16T00:41:07.213Z,9.22
2023-05-16T00:41:39.166Z,9.22
2023-05-16T00:41:56.155Z,9.22
2023-05-16T00:42:27.119Z,9.22
2023-05-16T00:42:59.225Z,9.22
2023-05-16T00:43:15.974Z,9.22
2023-05-16T00:43:37.103Z,9.22
2023-05-16T00:44:03.259Z,9.22
2023-05-16T00:44:36.365Z,9.22
2023-05-16T00:45:08.721Z,9.22
2023-05-16T00:45:39.264Z,9.11
2023-05-16T00:45:58.208Z,9.11
2023-05-16T00:46:27.281Z,9.22
2023-05-16T00:46:59.330Z,9.11
2023-05-16T00:47:16.195Z,9.11
2023-05-16T00:47:37.456Z,9.11
2023-05-16T00:48:03.299Z,9.11
2023-05-16T00:48:36.895Z,9.11
2023-05-16T00:49:07.245Z,9.11
2023-05-16T00:49:39.239Z,9.11
2023-05-16T00:49:56.110Z,9.22
2023-05-16T00:50:28.058Z,9.22
2023-05-16T00:50:59.344Z,9.22
2023-05-16T00:51:16.110Z,9.22
2023-05-16T00:51:37.411Z,9.22
2023-05-16T00:52:03.226Z,9.22
2023-05-16T00:52:36.868Z,9.22
2023-05-16T00:53:07.228Z,9.22
2023-05-16T00:53:39.305Z,9.22
2023-05-16T00:53:56.145Z,9.22
2023-05-16T00:54:27.136Z,9.22
2023-05-16T00:54:59.735Z,9.22
2023-05-16T00:55:17.188Z,9.22
2023-05-16T00:55:37.052Z,9.22
2023-05-16T00:56:03.259Z,9.22
2023-05-16T00:56:36.400Z,9.22
2023-05-16T00:57:07.474Z,9.22
2023-05-16T00:57:39.207Z,9.22
2023-05-16T00:57:56.119Z,9.22
2023-05-16T00:58:27.254Z,9.22
2023-05-16T00:58:59.283Z,9.22
2023-05-16T00:59:17.542Z,9.22
2023-05-16T00:59:37.427Z,9.22
2023-05-16T01:00:05.383Z,9.22
2023-05-16T01:00:36.435Z,9.22
2023-05-16T01:01:08.000Z,9.22
2023-05-16T01:01:39.251Z,9.22
2023-05-16T01:01:56.133Z,9.22
2023-05-16T01:02:27.348Z,9.22
2023-05-16T01:03:16.222Z,9.22
2023-05-16T01:03:37.554Z,9.22
2023-05-16T01:04:03.370Z,9.11
2023-05-16T01:04:36.173Z,9.11
2023-05-16T01:05:07.942Z,9.11
2023-05-16T01:05:39.241Z,9.11
2023-05-16T01:05:56.674Z,9.11
2023-05-16T01:06:27.203Z,9.11
2023-05-16T01:06:59.340Z,9.11
2023-05-16T01:07:16.196Z,9.11
2023-05-16T01:07:37.221Z,9.11
2023-05-16T01:08:03.390Z,9.11
2023-05-16T01:08:36.381Z,9.11
2023-05-16T01:09:07.372Z,9.22
2023-05-16T01:09:39.587Z,9.22
2023-05-16T01:09:56.009Z,9.22
2023-05-16T01:10:27.775Z,9.22
2023-05-16T01:10:59.295Z,9.22
2023-05-16T01:11:15.997Z,9.22
2023-05-16T01:11:37.282Z,9.22
2023-05-16T01:12:03.122Z,9.22
2023-05-16T01:12:36.235Z,9.22
2023-05-16T01:13:07.319Z,9.22
2023-05-16T01:13:39.183Z,9.22
2023-05-16T01:13:56.069Z,9.22
2023-05-16T01:14:27.196Z,9.22
2023-05-16T01:14:59.297Z,9.27
2023-05-16T01:15:16.807Z,9.27
2023-05-16T01:15:37.265Z,9.27
2023-05-16T01:16:03.356Z,9.27
2023-05-16T01:16:36.447Z,9.27
2023-05-16T01:17:07.508Z,9.27
2023-05-16T01:17:39.170Z,9.27
2023-05-16T01:17:56.195Z,9.27
2023-05-16T01:18:27.207Z,9.27
2023-05-16T01:18:59.385Z,9.27
2023-05-16T01:19:16.081Z,9.27
2023-05-16T01:19:37.210Z,9.27
2023-05-16T01:20:05.318Z,9.27
2023-05-16T01:20:36.445Z,9.27
2023-05-16T01:21:07.457Z,9.27
2023-05-16T01:21:39.164Z,9.27
2023-05-16T01:21:56.570Z,9.27
2023-05-16T01:22:27.212Z,9.27
2023-05-16T01:22:59.332Z,9.27
2023-05-16T01:23:31.103Z,9.27
2023-05-16T01:24:03.224Z,9.27
2023-05-16T01:24:36.202Z,9.27
2023-05-16T01:25:08.252Z,9.27
2023-05-16T01:25:39.159Z,9.27
2023-05-16T01:25:56.479Z,9.27
2023-05-16T01:26:27.335Z,9.27
2023-05-16T01:27:00.001Z,9.27
2023-05-16T01:27:16.210Z,9.27
2023-05-16T01:27:37.236Z,9.27
2023-05-16T01:28:03.239Z,9.27
2023-05-16T01:28:36.737Z,9.27
2023-05-16T01:29:07.268Z,9.27
2023-05-16T01:29:39.207Z,9.22
2023-05-16T01:29:56.088Z,9.22
2023-05-16T01:30:28.725Z,9.22
2023-05-16T01:30:59.930Z,9.22
2023-05-16T01:31:16.237Z,9.22
2023-05-16T01:31:37.400Z,9.22
2023-05-16T01:32:03.511Z,9.22
2023-05-16T01:32:36.285Z,9.22
2023-05-16T01:33:07.388Z,9.22
2023-05-16T01:33:39.197Z,9.22
2023-05-16T01:33:56.077Z,9.22
2023-05-16T01:34:27.196Z,9.22
2023-05-16T01:34:59.250Z,9.22
2023-05-16T01:35:16.614Z,9.22
2023-05-16T01:35:37.319Z,9.22
2023-05-16T01:36:03.666Z,9.22
2023-05-16T01:36:37.246Z,9.22
2023-05-16T01:37:07.264Z,9.22
2023-05-16T01:37:39.185Z,9.22
2023-05-16T01:37:56.380Z,9.22
2023-05-16T01:38:27.235Z,9.27
2023-05-16T01:38:59.264Z,9.27
2023-05-16T01:39:16.019Z,9.27
2023-05-16T01:39:37.298Z,9.27
2023-05-16T01:40:19.705Z,9.27
2023-05-16T01:40:36.228Z,9.27
2023-05-16T01:41:07.805Z,9.27
2023-05-16T01:41:39.373Z,9.38
2023-05-16T01:42:11.435Z,9.38
2023-05-16T01:42:37.180Z,9.38
2023-05-16T01:42:59.850Z,9.38
2023-05-16T01:43:31.158Z,9.38
2023-05-16T01:44:03.417Z,9.38
2023-05-16T01:44:36.681Z,9.38
2023-05-16T01:45:09.164Z,9.38
2023-05-16T01:45:39.234Z,9.38
2023-05-16T01:45:56.555Z,9.38
2023-05-16T01:46:27.577Z,9.38
2023-05-16T01:46:59.478Z,9.50
2023-05-16T01:47:16.755Z,9.50
2023-05-16T01:47:37.315Z,9.50
2023-05-16T01:48:03.208Z,9.50
2023-05-16T01:48:36.357Z,9.50
2023-05-16T01:49:07.505Z,9.50
2023-05-16T01:49:39.282Z,9.50
2023-05-16T01:49:56.075Z,9.50
2023-05-16T01:50:27.633Z,9.50
2023-05-16T01:50:59.253Z,9.50
2023-05-16T01:51:18.497Z,9.50
2023-05-16T01:51:37.366Z,9.50
2023-05-16T01:52:03.163Z,9.61
2023-05-16T01:52:36.309Z,9.61
2023-05-16T01:53:07.362Z,9.61
2023-05-16T01:53:39.215Z,9.61
2023-05-16T01:53:56.076Z,9.61
2023-05-16T01:54:27.152Z,9.61
2023-05-16T01:54:59.589Z,9.61
2023-05-16T01:55:16.588Z,9.61
2023-05-16T01:55:37.262Z,9.61
2023-05-16T01:56:03.365Z,9.61
2023-05-16T01:56:36.385Z,9.61
2023-05-16T01:57:07.319Z,9.61
2023-05-16T01:57:39.185Z,9.61
2023-05-16T01:57:56.148Z,9.61
2023-05-16T01:58:27.393Z,9.61
2023-05-16T01:58:59.338Z,9.61
2023-05-16T01:59:16.359Z,9.61
2023-05-16T01:59:37.231Z,9.61
2023-05-16T02:00:05.393Z,9.61
2023-05-16T02:00:36.917Z,9.61
2023-05-16T02:01:07.807Z,9.61
2023-05-16T02:01:39.658Z,9.61
2023-05-16T02:01:55.968Z,9.61
2023-05-16T02:02:27.255Z,9.61
2023-05-16T02:02:59.676Z,9.61
2023-05-16T02:03:16.658Z,9.61
2023-05-16T02:03:37.304Z,9.61
2023-05-16T02:04:03.185Z,9.61
2023-05-16T02:04:36.351Z,9.61
2023-05-16T02:05:08.009Z,9.72
2023-05-16T02:05:39.358Z,9.72
2023-05-16T02:05:56.351Z,9.72
2023-05-16T02:06:27.246Z,9.61
2023-05-16T02:06:59.472Z,9.61
2023-05-16T02:07:16.068Z,9.61
2023-05-16T02:07:37.151Z,9.61
2023-05-16T02:08:03.194Z,9.61
2023-05-16T02:08:36.308Z,9.61
2023-05-16T02:09:07.403Z,9.61
2023-05-16T02:09:39.277Z,9.61
2023-05-16T02:09:56.249Z,9.61
2023-05-16T02:10:27.744Z,9.61
2023-05-16T02:10:59.391Z,9.72
2023-05-16T02:11:16.145Z,9.72
2023-05-16T02:11:37.330Z,9.72
2023-05-16T02:12:03.412Z,9.72
2023-05-16T02:12:36.304Z,9.72
2023-05-16T02:13:07.337Z,9.72
2023-05-16T02:13:39.184Z,9.72
2023-05-16T02:13:56.061Z,9.72
2023-05-16T02:14:27.284Z,9.72
2023-05-16T02:14:59.688Z,9.72
2023-05-16T02:15:16.930Z,9.72
2023-05-16T02:15:37.275Z,9.72
2023-05-16T02:16:03.153Z,9.72
2023-05-16T02:16:36.398Z,9.72
2023-05-16T02:17:07.458Z,9.72
2023-05-16T02:17:39.251Z,9.72
2023-05-16T02:17:56.334Z,9.72
2023-05-16T02:18:27.350Z,9.72
2023-05-16T02:18:59.448Z,9.72
2023-05-16T02:19:16.211Z,9.72
2023-05-16T02:19:37.473Z,9.77
2023-05-16T02:20:04.923Z,9.77
2023-05-16T02:20:36.648Z,9.77
2023-05-16T02:21:07.421Z,9.77
2023-05-16T02:21:39.252Z,9.77
2023-05-16T02:21:56.166Z,9.77
2023-05-16T02:22:28.041Z,9.77
2023-05-16T02:22:59.380Z,9.77
2023-05-16T02:23:16.078Z,9.77
2023-05-16T02:23:37.236Z,9.77
2023-05-16T02:24:03.143Z,9.77
2023-05-16T02:24:36.423Z,9.77
2023-05-16T02:25:08.210Z,9.77
2023-05-16T02:25:39.157Z,9.77
2023-05-16T02:25:56.368Z,9.77
2023-05-16T02:26:27.489Z,9.77
2023-05-16T02:26:59.361Z,9.77
2023-05-16T02:27:16.120Z,9.77
2023-05-16T02:27:37.222Z,9.77
2023-05-16T02:28:03.172Z,9.77
2023-05-16T02:28:36.192Z,9.77
2023-05-16T02:29:07.293Z,9.77
2023-05-16T02:29:39.209Z,9.77
2023-05-16T02:29:56.183Z,9.77
2023-05-16T02:30:28.138Z,9.77
2023-05-16T02:30:59.662Z,9.77
2023-05-16T02:31:16.105Z,9.77
2023-05-16T02:31:37.304Z,9.88
2023-05-16T02:32:03.123Z,9.88
2023-05-16T02:32:36.393Z,9.77
2023-05-16T02:33:07.564Z,9.77
2023-05-16T02:33:39.203Z,9.77
2023-05-16T02:33:56.075Z,9.77
2023-05-16T02:34:27.213Z,9.77
2023-05-16T02:34:59.326Z,9.77
2023-05-16T02:35:16.463Z,9.77
2023-05-16T02:35:37.266Z,9.77
2023-05-16T02:36:03.173Z,9.77
2023-05-16T02:36:36.339Z,9.77
2023-05-16T02:37:07.218Z,9.77
2023-05-16T02:37:39.188Z,9.77
2023-05-16T02:38:11.077Z,9.77
2023-05-16T02:38:37.409Z,9.77
2023-05-16T02:38:59.274Z,9.77
2023-05-16T02:39:16.084Z,9.77
2023-05-16T02:39:37.201Z,9.77
2023-05-16T02:40:04.631Z,9.77
2023-05-16T02:40:36.651Z,9.72
2023-05-16T02:41:07.386Z,9.72
2023-05-16T02:41:39.230Z,9.72
2023-05-16T02:42:11.221Z,9.72
2023-05-16T02:42:37.878Z,9.72
2023-05-16T02:42:59.344Z,9.72
2023-05-16T02:43:19.336Z,9.72
2023-05-16T02:43:37.982Z,9.72
2023-05-16T02:44:03.144Z,9.72
2023-05-16T02:44:36.663Z,9.72
2023-05-16T02:45:08.600Z,9.72
2023-05-16T02:45:39.583Z,9.72
2023-05-16T02:46:11.088Z,9.72
2023-05-16T02:46:37.321Z,9.72
2023-05-16T02:46:59.283Z,9.72
2023-05-16T02:47:17.216Z,9.72
2023-05-16T02:47:37.371Z,9.72
2023-05-16T02:48:03.147Z,9.72
2023-05-16T02:48:36.238Z,9.72
2023-05-16T02:49:07.370Z,9.72
2023-05-16T02:49:39.553Z,9.61
2023-05-16T02:50:11.458Z,9.61
2023-05-16T02:50:37.158Z,9.61
2023-05-16T02:50:59.646Z,9.61
2023-05-16T02:51:16.085Z,9.61
2023-05-16T02:51:37.177Z,9.61
2023-05-16T02:52:03.196Z,9.61
2023-05-16T02:52:36.796Z,9.61
2023-05-16T02:53:07.341Z,9.61
2023-05-16T02:53:39.598Z,9.50
2023-05-16T02:53:56.270Z,9.50
2023-05-16T02:54:27.192Z,9.50
2023-05-16T02:55:16.906Z,9.38
2023-05-16T02:55:31.563Z,9.38
2023-05-16T02:56:03.080Z,9.27
2023-05-16T02:56:36.241Z,9.27
2023-05-16T02:57:07.274Z,9.22
2023-05-16T02:57:39.231Z,9.22
2023-05-16T02:58:11.088Z,9.11
2023-05-16T02:58:37.167Z,9.11
2023-05-16T02:58:59.295Z,9.11
2023-05-16T02:59:16.230Z,9.11
2023-05-16T02:59:37.298Z,9.00
2023-05-16T03:00:05.593Z,9.00
2023-05-16T03:00:36.307Z,8.88
2023-05-16T03:01:07.901Z,8.88
2023-05-16T03:01:39.280Z,8.88
2023-05-16T03:02:11.442Z,8.88
2023-05-16T03:02:37.525Z,8.88
2023-05-16T03:02:59.303Z,8.88
2023-05-16T03:03:16.239Z,8.88
2023-05-16T03:03:37.385Z,8.88
2023-05-16T03:04:03.734Z,8.88
2023-05-16T03:04:36.278Z,8.88
2023-05-16T03:05:07.948Z,9.00
2023-05-16T03:05:39.219Z,9.00
2023-05-16T03:06:11.111Z,9.11
2023-05-16T03:06:37.192Z,9.11
2023-05-16T03:06:59.681Z,9.11
2023-05-16T03:07:31.147Z,9.11
2023-05-16T03:08:03.097Z,9.22
2023-05-16T03:08:36.800Z,9.22
2023-05-16T03:09:07.278Z,9.22
2023-05-16T03:09:39.267Z,9.22
2023-05-16T03:10:11.572Z,9.22
2023-05-16T03:10:37.307Z,9.22
2023-05-16T03:10:59.779Z,9.22
2023-05-16T03:11:16.182Z,9.22
2023-05-16T03:11:37.360Z,9.22
2023-05-16T03:12:03.105Z,9.22
2023-05-16T03:12:36.632Z,9.22
2023-05-16T03:13:07.313Z,9.22
2023-05-16T03:13:39.140Z,9.22
2023-05-16T03:14:11.118Z,9.22
2023-05-16T03:14:37.131Z,9.22
2023-05-16T03:14:59.251Z,9.22
2023-05-16T03:15:16.994Z,9.22
2023-05-16T03:15:37.347Z,9.22
2023-05-16T03:16:03.238Z,9.22
2023-05-16T03:16:36.312Z,9.22
2023-05-16T03:17:07.274Z,9.22
2023-05-16T03:17:39.236Z,9.22
2023-05-16T03:18:11.106Z,9.22
2023-05-16T03:18:37.443Z,9.22
2023-05-16T03:18:59.583Z,9.22
2023-05-16T03:19:16.293Z,9.22
2023-05-16T03:19:37.547Z,9.22
2023-05-16T03:20:04.914Z,9.22
2023-05-16T03:20:36.853Z,9.22
2023-05-16T03:21:07.529Z,9.22
2023-05-16T03:21:39.543Z,9.22
2023-05-16T03:22:11.338Z,9.22
2023-05-16T03:22:37.374Z,9.22
2023-05-16T03:22:59.470Z,9.22
2023-05-16T03:23:16.391Z,9.22
2023-05-16T03:23:37.471Z,9.22
2023-05-16T03:24:03.371Z,9.22
2023-05-16T03:24:36.668Z,9.22
2023-05-16T03:25:08.154Z,9.22
2023-05-16T03:25:39.412Z,9.22
2023-05-16T03:26:11.320Z,9.22
2023-05-16T03:26:37.471Z,9.22
2023-05-16T03:26:59.584Z,9.22
2023-05-16T03:27:16.332Z,9.22
2023-05-16T03:27:37.494Z,9.11
2023-05-16T03:28:03.347Z,9.11
2023-05-16T03:28:36.491Z,9.11
2023-05-16T03:29:07.487Z,9.11
2023-05-16T03:29:39.360Z,9.11
2023-05-16T03:30:12.335Z,9.11
2023-05-16T03:30:37.490Z,9.11
2023-05-16T03:31:00.201Z,9.00
2023-05-16T03:31:16.325Z,9.00
2023-05-16T03:31:37.439Z,9.00
2023-05-16T03:32:03.571Z,9.00
2023-05-16T03:32:36.562Z,9.00
2023-05-16T03:33:07.550Z,9.00
2023-05-16T03:33:39.380Z,9.00
2023-05-16T03:34:11.324Z,9.00
2023-05-16T03:34:37.931Z,9.00
2023-05-16T03:34:59.422Z,9.00
2023-05-16T03:35:25.611Z,9.00
2023-05-16T03:35:47.365Z,9.00
2023-05-16T03:36:19.501Z,8.88
2023-05-16T03:36:36.537Z,8.88
2023-05-16T03:37:07.512Z,8.88
2023-05-16T03:37:39.545Z,8.88
2023-05-16T03:38:11.414Z,8.77
2023-05-16T03:38:37.377Z,8.77
2023-05-16T03:38:59.365Z,8.77
2023-05-16T03:39:16.334Z,8.77
2023-05-16T03:39:37.603Z,8.77
2023-05-16T03:40:06.042Z,8.72
2023-05-16T03:40:37.105Z,8.72
2023-05-16T03:41:07.632Z,8.72
2023-05-16T03:41:39.613Z,8.61
2023-05-16T03:42:11.468Z,8.61
2023-05-16T03:42:37.410Z,8.61
2023-05-16T03:42:59.700Z,8.61
2023-05-16T03:43:16.325Z,8.61
2023-05-16T03:43:37.508Z,8.50
2023-05-16T03:44:03.388Z,8.50
2023-05-16T03:44:36.492Z,8.50
2023-05-16T03:45:10.364Z,8.50
2023-05-16T03:45:39.793Z,8.50
2023-05-16T03:45:56.873Z,8.50
2023-05-16T03:46:27.973Z,8.38
2023-05-16T03:46:59.614Z,8.38
2023-05-16T03:47:16.408Z,8.38
2023-05-16T03:47:37.539Z,8.38
2023-05-16T03:48:04.131Z,8.38
2023-05-16T03:48:36.427Z,8.38
2023-05-16T03:49:07.466Z,8.38
2023-05-16T03:49:39.827Z,8.38
2023-05-16T03:49:56.339Z,8.38
2023-05-16T03:50:27.918Z,8.38
2023-05-16T03:50:59.453Z,8.38
2023-05-16T03:51:16.255Z,8.38
2023-05-16T03:51:37.474Z,8.38
2023-05-16T03:52:03.294Z,8.38
2023-05-16T03:52:36.570Z,8.38
2023-05-16T03:53:07.674Z,8.38
2023-05-16T03:53:39.434Z,8.38
2023-05-16T03:54:11.545Z,8.38
2023-05-16T03:54:37.530Z,8.38
2023-05-16T03:55:00.027Z,8.38
2023-05-16T03:55:31.872Z,8.38
2023-05-16T03:56:03.683Z,8.38
2023-05-16T03:56:36.518Z,8.38
2023-05-16T03:57:07.550Z,8.38
2023-05-16T03:57:39.474Z,8.38
2023-05-16T03:57:56.507Z,8.38
2023-05-16T03:58:27.645Z,8.38
2023-05-16T03:59:00.029Z,8.38
2023-05-16T03:59:16.897Z,8.38
2023-05-16T03:59:37.525Z,8.38
2023-05-16T04:00:05.815Z,8.38
2023-05-16T04:00:36.966Z,8.38
2023-05-16T04:01:08.247Z,8.38
2023-05-16T04:01:39.717Z,8.38
2023-05-16T04:01:56.345Z,8.38
2023-05-16T04:02:27.548Z,8.38
2023-05-16T04:02:59.499Z,8.38
2023-05-16T04:03:16.631Z,8.38
2023-05-16T04:03:37.648Z,8.38
2023-05-16T04:04:03.420Z,8.38
2023-05-16T04:04:36.411Z,8.38
2023-05-16T04:05:08.378Z,8.38
2023-05-16T04:05:39.440Z,8.38
2023-05-16T04:06:11.333Z,8.38
2023-05-16T04:06:37.668Z,8.38
2023-05-16T04:06:59.439Z,8.38
2023-05-16T04:07:16.446Z,8.38
2023-05-16T04:07:37.673Z,8.38
2023-05-16T04:08:04.420Z,8.38
2023-05-16T04:08:36.551Z,8.38
2023-05-16T04:09:07.511Z,8.38
2023-05-16T04:09:39.408Z,8.38
2023-05-16T04:10:12.349Z,8.38
2023-05-16T04:10:37.470Z,8.50
2023-05-16T04:11:00.042Z,8.50
2023-05-16T04:11:16.450Z,8.50
2023-05-16T04:11:37.484Z,8.50
2023-05-16T04:12:03.423Z,8.50
2023-05-16T04:12:36.615Z,8.50
2023-05-16T04:13:07.585Z,8.61
2023-05-16T04:13:39.682Z,8.61
2023-05-16T04:14:11.325Z,8.61
2023-05-16T04:14:37.506Z,8.61
2023-05-16T04:14:59.631Z,8.61
2023-05-16T04:15:17.634Z,8.61
2023-05-16T04:15:37.519Z,8.72
2023-05-16T04:16:03.452Z,8.72
2023-05-16T04:16:36.638Z,8.72
2023-05-16T04:17:07.691Z,8.72
2023-05-16T04:17:39.428Z,8.72
2023-05-16T04:18:11.218Z,8.72
2023-05-16T04:18:37.763Z,8.72
2023-05-16T04:18:59.701Z,8.72
2023-05-16T04:19:16.535Z,8.72
2023-05-16T04:19:37.429Z,8.72
2023-05-16T04:20:05.233Z,8.72
2023-05-16T04:20:36.645Z,8.72
2023-05-16T04:21:07.832Z,8.72
2023-05-16T04:21:39.711Z,8.72
2023-05-16T04:21:56.171Z,8.72
2023-05-16T04:22:27.776Z,8.72
2023-05-16T04:22:59.499Z,8.72
2023-05-16T04:23:16.607Z,8.72
2023-05-16T04:23:37.681Z,8.72
2023-05-16T04:24:03.433Z,8.72
2023-05-16T04:24:36.858Z,8.72
2023-05-16T04:25:08.392Z,8.72
2023-05-16T04:25:39.617Z,8.72
2023-05-16T04:26:11.216Z,8.72
2023-05-16T04:26:37.698Z,8.72
2023-05-16T04:26:59.627Z,8.72
2023-05-16T04:27:18.629Z,8.72
2023-05-16T04:27:37.537Z,8.72
2023-05-16T04:28:03.624Z,8.72
2023-05-16T04:28:36.524Z,8.72
2023-05-16T04:29:08.215Z,8.72
2023-05-16T04:29:39.563Z,8.72
2023-05-16T04:30:12.315Z,8.72
2023-05-16T04:30:37.608Z,8.72
2023-05-16T04:31:00.078Z,8.72
2023-05-16T04:31:16.440Z,8.72
2023-05-16T04:31:37.957Z,8.72
2023-05-16T04:32:03.603Z,8.77
2023-05-16T04:32:36.893Z,8.77
2023-05-16T04:33:07.648Z,8.77
2023-05-16T04:33:39.556Z,8.77
2023-05-16T04:34:11.391Z,8.77
2023-05-16T04:34:39.623Z,8.77
2023-05-16T04:34:59.610Z,8.88
2023-05-16T04:35:16.971Z,8.88
2023-05-16T04:35:37.465Z,8.88
2023-05-16T04:36:03.328Z,8.88
2023-05-16T04:36:36.762Z,8.88
2023-05-16T04:37:07.539Z,8.88
2023-05-16T04:37:40.161Z,9.00
2023-05-16T04:37:56.435Z,9.00
2023-05-16T04:38:27.399Z,9.00
2023-05-16T04:38:59.506Z,9.00
2023-05-16T04:39:16.431Z,9.00
2023-05-16T04:39:37.487Z,9.00
2023-05-16T04:40:05.155Z,9.11
2023-05-16T04:40:36.958Z,9.11
2023-05-16T04:41:07.466Z,9.11
2023-05-16T04:41:39.428Z,9.11
2023-05-16T04:42:11.345Z,9.11
2023-05-16T04:42:37.554Z,9.11
2023-05-16T04:42:59.710Z,9.11
2023-05-16T04:43:16.369Z,9.11
2023-05-16T04:43:37.913Z,9.11
2023-05-16T04:44:03.483Z,9.11
2023-05-16T04:44:36.954Z,9.11
2023-05-16T04:45:08.795Z,9.11
2023-05-16T04:45:39.602Z,9.11
2023-05-16T04:46:11.375Z,9.11
2023-05-16T04:46:38.090Z,9.11
2023-05-16T04:46:59.789Z,9.11
2023-05-16T04:47:16.506Z,9.11
2023-05-16T04:47:38.417Z,9.11
2023-05-16T04:48:03.753Z,9.11
2023-05-16T04:48:36.861Z,9.11
2023-05-16T04:49:07.367Z,9.11
2023-05-16T04:49:39.641Z,9.11
2023-05-16T04:50:11.833Z,9.11
2023-05-16T04:50:37.881Z,9.11
2023-05-16T04:51:00.117Z,9.11
2023-05-16T04:51:16.396Z,9.11
2023-05-16T04:51:37.516Z,9.11
2023-05-16T04:52:03.387Z,9.11
2023-05-16T04:52:36.545Z,9.11
2023-05-16T04:53:08.425Z,9.11
2023-05-16T04:53:40.153Z,9.11
2023-05-16T04:53:56.233Z,9.11
2023-05-16T04:54:27.409Z,9.11
2023-05-16T04:54:59.425Z,9.11
2023-05-16T04:55:16.892Z,9.11
2023-05-16T04:55:37.448Z,9.11
2023-05-16T04:56:03.358Z,9.11
2023-05-16T04:56:36.460Z,9.22
2023-05-16T04:57:07.552Z,9.22
2023-05-16T04:57:39.351Z,9.22
2023-05-16T04:58:11.613Z,9.22
2023-05-16T04:58:37.372Z,9.22
2023-05-16T04:58:59.529Z,9.22
2023-05-16T04:59:16.649Z,9.22
2023-05-16T04:59:37.634Z,9.11
2023-05-16T05:00:05.577Z,9.11
2023-05-16T05:00:38.620Z,9.11
2023-05-16T05:01:08.185Z,9.11
2023-05-16T05:01:39.779Z,9.11
2023-05-16T05:02:11.632Z,9.11
2023-05-16T05:02:37.545Z,9.11
2023-05-16T05:02:59.544Z,9.11
2023-05-16T05:03:16.501Z,9.11
2023-05-16T05:03:37.445Z,9.11
2023-05-16T05:04:03.518Z,9.11
2023-05-16T05:04:36.903Z,9.11
2023-05-16T05:05:08.386Z,9.11
2023-05-16T05:05:39.384Z,9.11
2023-05-16T05:06:11.311Z,9.11
2023-05-16T05:06:37.513Z,9.11
2023-05-16T05:06:59.401Z,9.11
2023-05-16T05:07:16.458Z,9.11
2023-05-16T05:07:37.473Z,9.11
2023-05-16T05:08:03.305Z,9.11
2023-05-16T05:08:36.446Z,9.11
2023-05-16T05:09:08.180Z,9.11
2023-05-16T05:09:39.373Z,9.11
2023-05-16T05:10:11.746Z,9.11
2023-05-16T05:10:37.423Z,9.11
2023-05-16T05:10:59.881Z,9.11
2023-05-16T05:11:16.418Z,9.11
2023-05-16T05:11:37.438Z,9.11
2023-05-16T05:12:03.442Z,9.11
2023-05-16T05:12:36.577Z,9.11
2023-05-16T05:13:07.401Z,9.11
2023-05-16T05:13:39.478Z,9.11
2023-05-16T05:14:11.579Z,9.11
2023-05-16T05:14:37.490Z,9.11
2023-05-16T05:14:59.424Z,9.11
2023-05-16T05:15:17.273Z,9.11
2023-05-16T05:15:37.515Z,9.11
2023-05-16T05:16:03.545Z,9.11
2023-05-16T05:16:36.475Z,9.11
2023-05-16T05:17:07.633Z,9.11
2023-05-16T05:17:39.513Z,9.11
2023-05-16T05:18:11.484Z,9.11
2023-05-16T05:18:37.581Z,9.11
2023-05-16T05:18:59.683Z,9.11
2023-05-16T05:19:18.863Z,9.11
2023-05-16T05:19:37.620Z,9.11
2023-05-16T05:20:04.995Z,9.11
2023-05-16T05:20:36.663Z,9.00
2023-05-16T05:21:07.469Z,9.00
2023-05-16T05:21:39.324Z,9.00
2023-05-16T05:22:11.417Z,9.00
2023-05-16T05:22:37.531Z,9.00
2023-05-16T05:22:59.480Z,8.88
2023-05-16T05:23:16.467Z,8.88
2023-05-16T05:23:37.708Z,8.88
2023-05-16T05:24:03.340Z,8.88
2023-05-16T05:24:36.620Z,8.88
2023-05-16T05:25:08.138Z,8.88
2023-05-16T05:25:39.375Z,8.88
2023-05-16T05:26:11.368Z,8.88
2023-05-16T05:26:37.488Z,8.88
2023-05-16T05:26:59.829Z,8.88
2023-05-16T05:27:31.468Z,8.88
2023-05-16T05:28:03.361Z,8.88
2023-05-16T05:28:36.403Z,8.88
2023-05-16T05:29:07.683Z,8.88
2023-05-16T05:29:39.749Z,8.88
2023-05-16T05:29:56.269Z,8.88
2023-05-16T05:30:28.435Z,8.77
2023-05-16T05:31:00.137Z,8.77
2023-05-16T05:31:16.506Z,8.77
2023-05-16T05:31:37.740Z,8.77
2023-05-16T05:32:03.668Z,8.77
2023-05-16T05:32:36.551Z,8.77
2023-05-16T05:33:12.675Z,8.77
2023-05-16T05:33:39.418Z,8.77
2023-05-16T05:34:11.476Z,8.77
2023-05-16T05:34:37.445Z,8.77
2023-05-16T05:34:59.681Z,8.77
2023-05-16T05:35:16.827Z,8.77
2023-05-16T05:35:37.489Z,8.77
2023-05-16T05:36:04.194Z,8.77
2023-05-16T05:36:37.211Z,8.77
2023-05-16T05:37:07.441Z,8.77
2023-05-16T05:37:39.415Z,8.77
2023-05-16T05:38:11.478Z,8.77
2023-05-16T05:38:37.463Z,8.77
2023-05-16T05:38:59.439Z,8.77
2023-05-16T05:39:16.440Z,8.77
2023-05-16T05:39:37.399Z,8.77
2023-05-16T05:40:05.151Z,8.77
2023-05-16T05:40:36.449Z,8.72
2023-05-16T05:41:07.616Z,8.72
2023-05-16T05:41:39.318Z,8.72
2023-05-16T05:42:11.735Z,8.72
2023-05-16T05:42:37.487Z,8.72
2023-05-16T05:42:59.582Z,8.72
2023-05-16T05:43:16.336Z,8.72
2023-05-16T05:43:37.498Z,8.72
2023-05-16T05:44:03.688Z,8.72
2023-05-16T05:44:37.058Z,8.72
2023-05-16T05:45:08.806Z,8.72
2023-05-16T05:45:39.513Z,8.72
2023-05-16T05:46:11.881Z,8.72
2023-05-16T05:46:38.002Z,8.72
2023-05-16T05:46:59.573Z,8.72
2023-05-16T05:47:16.421Z,8.72
2023-05-16T05:47:37.557Z,8.72
2023-05-16T05:48:03.484Z,8.72
2023-05-16T05:48:37.122Z,8.72
2023-05-16T05:49:07.784Z,8.72
2023-05-16T05:49:39.557Z,8.61
2023-05-16T05:50:11.886Z,8.61
2023-05-16T05:50:37.397Z,8.61
2023-05-16T05:51:00.251Z,8.61
2023-05-16T05:51:16.458Z,8.61
2023-05-16T05:51:37.519Z,8.61
2023-05-16T05:52:03.369Z,8.61
2023-05-16T05:52:36.620Z,8.61
2023-05-16T05:53:08.068Z,8.61
2023-05-16T05:53:39.429Z,8.61
2023-05-16T05:53:56.530Z,8.61
2023-05-16T05:54:27.502Z,8.61
2023-05-16T05:54:59.494Z,8.61
2023-05-16T05:55:16.887Z,8.61
2023-05-16T05:55:37.525Z,8.61
2023-05-16T05:56:03.383Z,8.61
2023-05-16T05:56:36.565Z,8.61
2023-05-16T05:57:07.589Z,8.61
2023-05-16T05:57:39.469Z,8.61
2023-05-16T05:58:12.088Z,8.61
2023-05-16T05:58:37.412Z,8.61
2023-05-16T05:58:59.464Z,8.61
2023-05-16T05:59:16.410Z,8.61